Time;durP1;ratioP1;P1;durP2;ratioP2;P2;SDS_P1;SDS_P2;PMS_P1;PMS_P2;Temp;Humidity;BMP_temperature;BMP_pressure;BME280_temperature;BME280_humidity;BME280_pressure;Samples;Min_cycle;Max_cycle;Signal;HPM_P1;HPM_P2
2022/06/17 00:01:31;;;;;;;8.90;3.92;;;;;;;13.73;76.82;97369.69;1464153;97;26827;-78
2022/06/17 00:03:57;;;;;;;7.00;3.90;;;;;;;13.73;76.84;97371.04;1516194;93;26112;-77
2022/06/17 00:06:28;;;;;;;7.05;3.60;;;;;;;13.73;76.72;97368.86;1494871;95;26923;-76
2022/06/17 00:08:56;;;;;;;4.85;3.50;;;;;;;13.65;76.54;97376.77;1547872;91;25808;-77
2022/06/17 00:11:28;;;;;;;8.08;3.98;;;;;;;13.62;76.61;97378.09;1548564;92;25863;-76
2022/06/17 00:13:55;;;;;;;4.78;3.92;;;;;;;13.60;76.53;97372.06;1498378;95;25936;-77
2022/06/17 00:16:24;;;;;;;8.68;4.60;;;;;;;13.54;76.47;97380.28;1497883;95;25782;-77
2022/06/17 00:18:51;;;;;;;6.28;4.62;;;;;;;13.50;76.63;97378.58;1497858;95;28113;-79
2022/06/17 00:21:31;;;;;;;4.67;4.25;;;;;;;13.48;76.68;97382.57;1534094;90;26008;-76
2022/06/17 00:24:00;;;;;;;5.42;4.67;;;;;;;13.48;76.84;97375.80;1535592;92;26029;-77
2022/06/17 00:26:27;;;;;;;5.17;4.25;;;;;;;13.50;76.78;97372.33;1573186;90;25804;-78
2022/06/17 00:28:54;;;;;;;6.95;4.53;;;;;;;13.49;76.61;97374.73;1573383;90;26147;-77
2022/06/17 00:31:21;;;;;;;7.50;4.08;;;;;;;13.47;76.60;97379.56;1572846;90;28374;-76
2022/06/17 00:33:47;;;;;;;7.33;4.05;;;;;;;13.43;76.60;97377.83;1573640;89;25944;-78
2022/06/17 00:36:17;;;;;;;5.95;4.53;;;;;;;13.41;76.52;97377.23;1572117;90;25787;-77
2022/06/17 00:38:46;;;;;;;6.22;3.98;;;;;;;13.34;76.42;97375.14;1575201;89;25935;-78
2022/06/17 00:41:20;;;;;;;7.92;4.03;;;;;;;13.27;76.52;97379.31;1574417;90;25882;-77
2022/06/17 00:43:47;;;;;;;6.47;4.40;;;;;;;13.17;76.59;97379.01;1576378;89;27492;-77
2022/06/17 00:46:25;;;;;;;7.65;4.15;;;;;;;13.08;76.63;97376.81;1575021;89;26055;-77
2022/06/17 00:49:09;;;;;;;6.75;4.42;;;;;;;12.98;76.71;97374.64;1575296;89;25787;-76
2022/06/17 00:51:49;;;;;;;4.40;4.00;;;;;;;12.87;76.85;97378.12;1576791;90;25813;-77
2022/06/17 00:54:30;;;;;;;6.85;3.92;;;;;;;12.77;76.99;97381.89;1583422;87;25866;-78
2022/06/17 00:56:56;;;;;;;4.30;3.90;;;;;;;12.67;77.06;97382.94;1586518;88;27542;-76
2022/06/17 00:59:25;;;;;;;5.08;4.17;;;;;;;12.69;77.35;97391.12;1583792;89;25931;-78
2022/06/17 01:02:03;;;;;;;6.90;4.10;;;;;;;12.70;77.25;97383.30;1609856;87;26721;-76
2022/06/17 01:04:34;;;;;;;5.67;3.40;;;;;;;12.70;77.22;97382.47;1550932;92;25773;-77
2022/06/17 01:07:11;;;;;;;8.83;4.17;;;;;;;12.70;77.04;97389.23;1471903;95;25818;-77
2022/06/17 01:09:58;;;;;;;4.25;3.72;;;;;;;12.68;76.91;97384.59;1472659;94;27518;-77
2022/06/17 01:12:31;;;;;;;5.12;4.15;;;;;;;12.66;76.83;97394.83;1504728;93;26154;-77
2022/06/17 01:14:59;;;;;;;5.47;3.90;;;;;;;12.63;76.84;97390.67;1490684;95;25879;-77
2022/06/17 01:17:27;;;;;;;4.47;4.05;;;;;;;12.52;76.65;97386.84;1471585;94;25921;-77
2022/06/17 01:19:57;;;;;;;11.18;4.40;;;;;;;12.47;76.86;97382.60;1433265;98;26103;-78
2022/06/17 01:22:35;;;;;;;5.58;3.40;;;;;;;12.49;76.86;97381.03;1467763;96;28606;-78
2022/06/17 01:25:07;;;;;;;5.70;3.77;;;;;;;12.48;76.82;97389.67;1466661;96;25837;-76
2022/06/17 01:27:45;;;;;;;;;;;;;;;12.46;76.75;97393.13;1468963;96;25929;-76
2022/06/17 01:30:20;;;;;;;5.05;3.47;;;;;;;12.35;76.84;97404.69;1473723;96;26007;-79
2022/06/17 01:33:16;;;;;;;4.17;3.60;;;;;;;12.28;76.92;97403.11;1488030;95;26055;-77
2022/06/17 01:36:02;;;;;;;4.37;3.62;;;;;;;12.28;76.89;97409.34;1470442;97;27570;-76
2022/06/17 01:38:31;;;;;;;4.58;4.12;;;;;;;12.24;76.91;97417.59;1467032;96;25905;-76
2022/06/17 01:41:00;;;;;;;3.90;3.60;;;;;;;12.21;76.84;97412.62;1502044;92;26054;-77
2022/06/17 01:43:34;;;;;;;5.67;3.58;;;;;;;12.14;76.71;97413.22;1520156;92;25801;-78
2022/06/17 01:46:12;;;;;;;5.17;4.28;;;;;;;12.10;76.81;97416.05;1519777;93;26002;-79
2022/06/17 01:48:43;;;;;;;16.20;7.80;;;;;;;12.07;76.88;97415.98;1513377;93;27428;-77
2022/06/17 01:51:12;;;;;;;20.43;8.93;;;;;;;12.07;76.93;97421.40;1488566;93;25347;-77
2022/06/17 01:53:44;;;;;;;17.00;7.90;;;;;;;12.06;76.79;97424.33;1507358;93;25803;-79
2022/06/17 01:56:15;;;;;;;9.03;5.03;;;;;;;11.99;76.82;97424.36;1487798;93;26086;-77
2022/06/17 01:58:50;;;;;;;7.85;4.70;;;;;;;11.96;76.76;97427.49;1488161;92;26803;-76
2022/06/17 02:01:17;;;;;;;8.38;4.50;;;;;;;11.93;76.90;97436.59;1517119;91;27542;-77
2022/06/17 02:03:52;;;;;;;5.05;3.87;;;;;;;11.94;76.96;97435.55;1556210;91;25778;-77
2022/06/17 02:06:27;;;;;;;7.33;4.03;;;;;;;11.94;76.91;97435.02;1507891;94;25908;-78
2022/06/17 02:08:54;;;;;;;6.60;4.08;;;;;;;11.94;76.87;97439.60;1513852;94;25833;-76
2022/06/17 02:11:22;;;;;;;5.05;4.10;;;;;;;11.93;76.83;97448.77;1523546;91;26662;-76
2022/06/17 02:13:49;;;;;;;6.53;4.90;;;;;;;11.90;76.90;97448.15;1557299;91;28336;-78
2022/06/17 02:16:16;;;;;;;4.70;4.30;;;;;;;11.81;77.05;97448.11;1557453;90;25878;-78
2022/06/17 02:18:44;;;;;;;7.53;4.40;;;;;;;11.82;77.19;97445.72;1558883;90;25846;-77
2022/06/17 02:21:22;;;;;;;11.60;4.25;;;;;;;11.83;77.27;97447.90;1558423;90;25796;-78
2022/06/17 02:23:49;;;;;;;5.53;4.67;;;;;;;11.83;77.40;97458.16;1557366;91;26066;-78
2022/06/17 02:26:16;;;;;;;7.58;4.95;;;;;;;11.78;77.33;97459.36;1558237;90;27500;-79
2022/06/17 02:28:44;;;;;;;7.08;4.47;;;;;;;11.74;77.42;97463.50;1616801;86;25870;-76
2022/06/17 02:31:13;;;;;;;8.43;4.45;;;;;;;11.77;77.52;97467.16;1611312;86;25758;-77
2022/06/17 02:33:42;;;;;;;10.50;4.62;;;;;;;11.80;77.53;97469.44;1632999;86;26647;-76
2022/06/17 02:36:20;;;;;;;8.33;5.03;;;;;;;11.78;77.40;97458.01;1633434;86;25845;-78
2022/06/17 02:38:46;;;;;;;7.62;4.47;;;;;;;11.73;77.42;97464.55;1633201;86;27379;-78
2022/06/17 02:41:19;;;;;;;12.15;6.08;;;;;;;11.76;77.50;97472.27;1634363;86;25731;-78
2022/06/17 02:43:53;;;;;;;8.18;5.65;;;;;;;11.77;77.53;97468.52;1634152;86;25828;-78
2022/06/17 02:46:30;;;;;;;10.68;5.62;;;;;;;11.77;77.58;97468.52;1566660;89;26087;-77
2022/06/17 02:49:00;;;;;;;8.50;5.90;;;;;;;11.69;77.66;97467.40;1551024;91;26194;-78
2022/06/17 02:51:31;;;;;;;9.80;5.42;;;;;;;11.72;77.80;97471.52;1542946;91;28257;-77
2022/06/17 02:54:00;;;;;;;9.75;5.53;;;;;;;11.76;77.79;97474.14;1543449;92;25808;-78
2022/06/17 02:56:30;;;;;;;6.87;5.60;;;;;;;11.76;77.78;97481.73;1537843;91;25881;-77
2022/06/17 02:59:23;;;;;;;10.63;5.28;;;;;;;11.75;77.76;97477.36;1551999;90;25939;-77
2022/06/17 03:01:55;;;;;;;7.60;5.17;;;;;;;11.72;77.75;97482.33;1556119;90;25748;-78
2022/06/17 03:04:26;;;;;;;7.28;5.00;;;;;;;11.71;77.86;97486.11;1550255;92;33391;-77
2022/06/17 03:06:53;;;;;;;7.60;5.33;;;;;;;11.63;77.80;97484.47;1575408;90;25564;-78
2022/06/17 03:09:24;;;;;;;7.37;5.15;;;;;;;11.64;78.02;97488.84;1534172;92;25781;-78
2022/06/17 03:12:12;;;;;;;10.60;5.90;;;;;;;11.68;78.14;97490.07;1579071;89;25925;-78
2022/06/17 03:15:02;;;;;;;11.55;6.05;;;;;;;11.72;78.10;97491.28;1597255;88;25540;-77
2022/06/17 03:17:31;;;;;;;8.08;5.80;;;;;;;11.73;78.06;97492.94;1560820;90;28194;-79
2022/06/17 03:20:00;;;;;;;6.35;5.72;;;;;;;11.75;78.08;97500.34;1544033;92;25664;-79
2022/06/17 03:22:29;;;;;;;7.42;6.10;;;;;;;11.76;78.07;97497.95;1597532;89;25825;-77
2022/06/17 03:25:09;;;;;;;10.20;6.08;;;;;;;11.76;78.04;97495.25;1614041;88;25822;-77
2022/06/17 03:27:49;;;;;;;6.97;5.60;;;;;;;11.77;78.07;97499.61;1609128;88;25794;-78
2022/06/17 03:30:32;;;;;;;10.88;5.53;;;;;;;11.80;78.15;97494.30;1608421;88;27659;-78
2022/06/17 03:33:07;;;;;;;8.68;5.75;;;;;;;11.79;78.19;97493.47;1505588;94;25936;-78
2022/06/17 03:35:37;;;;;;;10.03;5.60;;;;;;;11.79;78.28;97492.12;1495489;94;25835;-79
2022/06/17 03:38:09;;;;;;;7.37;5.78;;;;;;;11.84;78.38;97494.98;1490314;95;25945;-78
2022/06/17 03:40:41;;;;;;;10.18;6.12;;;;;;;11.88;78.42;97508.39;1472066;96;25902;-77
2022/06/17 03:43:15;;;;;;;8.15;6.30;;;;;;;11.88;78.46;97504.34;1441535;98;27507;-78
2022/06/17 03:46:05;;;;;;;8.88;6.10;;;;;;;11.85;78.69;97499.35;1427048;98;26025;-77
2022/06/17 03:48:42;;;;;;;7.10;6.40;;;;;;;11.89;78.83;97508.70;1448060;98;26376;-77
2022/06/17 03:51:23;;;;;;;12.00;7.10;;;;;;;11.93;79.13;97492.87;1443366;98;25664;-78
2022/06/17 03:53:51;;;;;;;8.35;7.42;;;;;;;11.89;79.05;97500.59;1445089;98;25958;-77
2022/06/17 03:56:28;;;;;;;11.38;7.50;;;;;;;11.97;79.24;97506.77;1447037;98;27615;-77
2022/06/17 03:59:00;;;;;;;10.43;7.40;;;;;;;11.99;79.40;97497.92;1447279;98;26666;-79
2022/06/17 04:01:44;;;;;;;10.80;7.05;;;;;;;12.04;79.43;97513.82;1457328;96;26461;-77
2022/06/17 04:04:18;;;;;;;8.78;7.75;;;;;;;12.10;79.58;97516.16;1432910;99;26043;-77
2022/06/17 04:06:48;;;;;;;11.28;7.55;;;;;;;12.14;79.61;97506.56;1438291;98;25799;-76
2022/06/17 04:09:26;;;;;;;9.38;7.70;;;;;;;12.23;79.76;97516.91;1439707;98;27510;-77
2022/06/17 04:11:59;;;;;;;13.78;7.72;;;;;;;12.34;79.86;97520.78;1439777;98;25952;-78
2022/06/17 04:14:38;;;;;;;9.20;7.90;;;;;;;12.39;79.91;97511.48;1439269;98;26084;-76
2022/06/17 04:17:19;;;;;;;9.38;6.20;;;;;;;12.42;79.95;97507.52;1439712;98;26023;-76
2022/06/17 04:19:50;;;;;;;9.30;6.30;;;;;;;12.52;79.97;97510.55;1439787;99;25814;-78
2022/06/17 04:22:21;;;;;;;7.83;6.50;;;;;;;12.65;79.92;97513.67;1438105;98;28121;-78
2022/06/17 04:24:55;;;;;;;7.85;7.15;;;;;;;12.77;79.99;97511.38;1439983;98;26083;-78
2022/06/17 04:27:24;;;;;;;11.85;7.05;;;;;;;12.87;80.16;97521.17;1440393;98;25897;-77
2022/06/17 04:29:54;;;;;;;9.98;6.85;;;;;;;12.98;80.10;97512.83;1446938;96;25838;-77
2022/06/17 04:32:33;;;;;;;8.08;6.53;;;;;;;13.04;79.98;97517.34;1500363;92;25877;-79
2022/06/17 04:35:00;;;;;;;7.67;6.83;;;;;;;13.17;80.20;97515.87;1529810;93;27634;-79
2022/06/17 04:37:27;;;;;;;8.63;6.83;;;;;;;13.25;80.25;97523.73;1516571;93;25838;-77
2022/06/17 04:39:57;;;;;;;9.28;6.53;;;;;;;13.36;80.18;97518.08;1517573;93;25887;-77
2022/06/17 04:42:34;;;;;;;7.15;6.28;;;;;;;13.42;80.01;97521.23;1512690;93;25921;-77
2022/06/17 04:45:00;;;;;;;8.73;6.50;;;;;;;13.50;80.08;97520.12;1561499;89;27123;-76
2022/06/17 04:47:28;;;;;;;7.70;6.90;;;;;;;13.54;80.28;97511.80;1591146;89;28369;-76
2022/06/17 04:50:05;;;;;;;9.60;6.53;;;;;;;13.58;80.25;97519.80;1592776;89;25828;-78
2022/06/17 04:52:41;;;;;;;7.37;6.35;;;;;;;13.64;80.32;97526.48;1589973;89;25922;-77
2022/06/17 04:55:15;;;;;;;9.28;6.30;;;;;;;13.64;80.12;97521.62;1581830;89;26159;-78
2022/06/17 04:57:42;;;;;;;9.40;5.90;;;;;;;13.66;80.04;97528.97;1551435;91;25405;-79
2022/06/17 05:00:17;;;;;;;6.65;5.92;;;;;;;13.65;80.07;97530.02;1590974;84;27448;-78
2022/06/17 05:02:43;;;;;;;7.75;6.10;;;;;;;13.69;80.17;97528.52;1626476;86;26069;-79
2022/06/17 05:05:15;;;;;;;11.78;5.90;;;;;;;13.73;80.04;97528.38;1622859;86;26503;-77
2022/06/17 05:07:46;;;;;;;10.65;6.05;;;;;;;13.74;79.99;97525.97;1593569;89;25590;-78
2022/06/17 05:10:24;;;;;;;8.90;6.40;;;;;;;13.77;80.00;97529.55;1600226;88;25737;-77
2022/06/17 05:12:58;;;;;;;8.48;6.25;;;;;;;13.80;79.87;97539.96;1593445;88;27565;-79
2022/06/17 05:15:25;;;;;;;9.03;6.45;;;;;;;13.82;79.83;97536.50;1601575;88;25404;-78
2022/06/17 05:17:52;;;;;;;7.92;6.85;;;;;;;13.83;79.96;97536.80;1601935;88;25861;-79
2022/06/17 05:20:21;;;;;;;7.83;6.37;;;;;;;13.87;80.00;97535.30;1603365;88;26068;-79
2022/06/17 05:23:07;;;;;;;10.60;7.30;;;;;;;13.91;80.01;97537.00;1599632;88;25626;-79
2022/06/17 05:25:37;;;;;;;8.55;6.90;;;;;;;13.88;80.02;97535.59;1595236;88;28114;-78
2022/06/17 05:28:07;;;;;;;13.10;7.37;;;;;;;13.87;80.15;97529.87;1574931;88;25976;-76
2022/06/17 05:30:38;;;;;;;10.30;7.28;;;;;;;13.90;80.20;97524.48;1592883;87;25768;-78
2022/06/17 05:33:05;;;;;;;8.30;6.47;;;;;;;13.94;80.24;97529.23;1572465;89;26095;-78
2022/06/17 05:35:31;;;;;;;10.48;6.78;;;;;;;13.98;80.09;97529.62;1601859;87;25990;-80
2022/06/17 05:37:59;;;;;;;9.68;6.90;;;;;;;14.02;80.05;97527.55;1590997;88;27461;-77
2022/06/17 05:40:26;;;;;;;8.93;6.10;;;;;;;14.08;80.00;97535.84;1609687;87;25345;-77
2022/06/17 05:42:53;;;;;;;7.67;6.87;;;;;;;14.11;80.03;97537.58;1610264;88;26557;-80
2022/06/17 05:45:23;;;;;;;12.68;7.50;;;;;;;14.14;80.04;97540.33;1600623;88;25755;-77
2022/06/17 05:47:50;;;;;;;10.00;7.40;;;;;;;14.12;80.08;97535.16;1596311;89;25803;-77
2022/06/17 05:50:18;;;;;;;8.23;6.87;;;;;;;14.14;80.12;97543.05;1584753;89;28028;-78
2022/06/17 05:52:54;;;;;;;9.98;7.33;;;;;;;14.18;80.18;97545.61;1588893;88;25831;-77
2022/06/17 05:55:23;;;;;;;8.85;6.85;;;;;;;14.21;80.18;97542.44;1591143;89;25917;-77
2022/06/17 05:57:49;;;;;;;15.23;7.42;;;;;;;14.27;80.06;97552.36;1598816;89;25825;-77
2022/06/17 06:00:19;;;;;;;9.20;7.10;;;;;;;14.30;80.00;97558.17;1641867;85;25823;-77
2022/06/17 06:02:46;;;;;;;9.20;8.13;;;;;;;14.30;80.09;97561.41;1652394;85;27458;-80
2022/06/17 06:05:17;;;;;;;10.55;7.53;;;;;;;14.30;80.17;97562.77;1652349;86;25765;-77
2022/06/17 06:07:44;;;;;;;10.35;7.53;;;;;;;14.33;80.18;97566.39;1650006;86;25825;-80
2022/06/17 06:10:11;;;;;;;10.28;8.48;;;;;;;14.36;80.14;97570.01;1649923;86;25907;-78
2022/06/17 06:15:26;;;;;;;13.03;7.83;;;;;;;14.45;79.85;97575.96;1705177;83;27496;-77
2022/06/17 06:17:52;;;;;;;10.75;8.53;;;;;;;14.50;79.89;97578.27;1706000;83;25789;-80
2022/06/17 06:20:19;;;;;;;11.33;8.18;;;;;;;14.55;79.90;97572.14;1703692;83;25853;-78
2022/06/17 06:22:46;;;;;;;8.88;7.75;;;;;;;14.60;79.88;97569.05;1705519;83;25791;-79
2022/06/17 06:25:16;;;;;;;15.60;9.15;;;;;;;14.66;79.85;97569.45;1704682;83;25716;-77
2022/06/17 06:27:43;;;;;;;11.55;9.65;;;;;;;14.72;79.80;97576.69;1705231;83;27408;-81
2022/06/17 06:30:26;;;;;;;11.55;9.75;;;;;;;14.79;79.82;97586.08;1704671;83;25758;-80
2022/06/17 06:33:00;;;;;;;11.28;9.38;;;;;;;14.85;79.87;97585.16;1674580;84;25981;-79
2022/06/17 06:35:31;;;;;;;13.38;10.78;;;;;;;14.90;79.99;97583.08;1681553;84;25805;-79
2022/06/17 06:37:58;;;;;;;12.65;9.88;;;;;;;14.92;79.90;97589.94;1704759;82;27065;-77
2022/06/17 06:40:24;;;;;;;12.15;9.58;;;;;;;14.94;79.80;97589.71;1704015;82;28123;-77
2022/06/17 06:42:52;;;;;;;11.57;10.23;;;;;;;14.96;79.68;97587.06;1702490;82;25752;-77
2022/06/17 06:45:27;;;;;;;13.85;11.80;;;;;;;15.01;79.63;97591.78;1711224;82;27080;-76
2022/06/17 06:47:56;;;;;;;15.50;12.60;;;;;;;15.05;79.57;97592.97;1699199;83;26284;-77
2022/06/17 06:50:26;;;;;;;16.70;13.35;;;;;;;15.12;79.52;97590.95;1707072;83;25915;-76
2022/06/17 06:52:53;;;;;;;17.12;14.68;;;;;;;15.19;79.56;97588.97;1703377;82;27434;-78
2022/06/17 06:55:20;;;;;;;22.82;19.37;;;;;;;15.31;79.75;97597.95;1693404;82;25813;-77
2022/06/17 06:57:53;;;;;;;26.17;23.20;;;;;;;15.46;79.97;97588.76;1713516;82;27001;-76
2022/06/17 07:00:27;;;;;;;37.15;29.80;;;;;;;15.63;80.04;97594.34;1689482;83;25764;-76
2022/06/17 07:02:54;;;;;;;39.20;33.20;;;;;;;15.82;80.24;97586.84;1697374;82;25923;-77
2022/06/17 07:05:21;;;;;;;43.13;33.28;;;;;;;15.98;79.90;97592.08;1708102;82;28459;-79
2022/06/17 07:07:48;;;;;;;42.65;33.90;;;;;;;16.09;79.88;97583.88;1696887;82;26242;-79
2022/06/17 07:10:23;;;;;;;40.12;33.00;;;;;;;16.19;79.62;97588.15;1732189;81;25852;-78
2022/06/17 07:12:49;;;;;;;38.38;34.18;;;;;;;16.28;79.54;97591.87;1716247;81;25784;-77
2022/06/17 07:15:17;;;;;;;40.90;34.55;;;;;;;16.35;79.09;97592.54;1721053;82;26058;-80
2022/06/17 07:17:58;;;;;;;40.67;33.08;;;;;;;16.38;79.04;97592.89;1713919;82;27439;-78
2022/06/17 07:20:27;;;;;;;40.67;34.38;;;;;;;16.40;79.04;97588.03;1636117;86;25968;-77
2022/06/17 07:22:54;;;;;;;41.28;35.10;;;;;;;16.48;79.17;97586.27;1644830;86;25850;-77
2022/06/17 07:25:22;;;;;;;38.50;33.13;;;;;;;16.64;79.36;97581.95;1653426;85;25607;-77
2022/06/17 07:27:48;;;;;;;41.13;34.83;;;;;;;16.80;79.00;97581.12;1653927;85;25900;-77
2022/06/17 07:30:20;;;;;;;40.28;32.60;;;;;;;16.95;79.21;97577.84;1656051;85;27506;-76
2022/06/17 07:32:47;;;;;;;34.13;29.13;;;;;;;17.05;78.79;97585.34;1656365;85;25712;-77
2022/06/17 07:35:14;;;;;;;36.93;30.05;;;;;;;17.14;78.27;97585.25;1658555;85;26611;-79
2022/06/17 07:40:30;;;;;;;32.65;28.90;;;;;;;17.33;77.75;97582.53;1665183;85;26017;-76
2022/06/17 07:42:58;;;;;;;34.50;29.18;;;;;;;17.40;77.79;97580.44;1658963;85;28302;-79
2022/06/17 07:45:25;;;;;;;31.73;27.00;;;;;;;17.48;77.46;97575.11;1661893;85;26287;-77
2022/06/17 07:47:54;;;;;;;33.28;29.75;;;;;;;17.55;77.09;97579.84;1665192;85;25871;-78
2022/06/17 07:50:25;;;;;;;35.05;29.50;;;;;;;17.56;77.11;97581.49;1650149;86;25876;-77
2022/06/17 07:52:53;;;;;;;33.92;29.18;;;;;;;17.44;76.60;97583.50;1589524;89;26947;-77
2022/06/17 07:55:19;;;;;;;34.53;30.08;;;;;;;17.33;76.57;97590.71;1590180;87;27788;-75
2022/06/17 07:57:46;;;;;;;35.20;30.15;;;;;;;17.25;76.68;97593.88;1613458;86;25742;-76
2022/06/17 08:00:27;;;;;;;36.28;30.27;;;;;;;17.33;76.69;97593.44;1631256;86;25960;-76
2022/06/17 08:02:54;;;;;;;35.88;29.45;;;;;;;17.33;76.86;97597.53;1564622;89;26228;-77
2022/06/17 08:05:21;;;;;;;36.00;29.20;;;;;;;17.37;76.71;97597.33;1558054;90;25934;-76
2022/06/17 08:07:52;;;;;;;31.62;28.23;;;;;;;17.44;76.41;97595.78;1577813;90;27688;-78
2022/06/17 08:10:24;;;;;;;33.90;29.95;;;;;;;17.50;76.40;97593.43;1545834;90;26007;-76
2022/06/17 08:12:50;;;;;;;35.88;29.92;;;;;;;17.52;75.82;97601.63;1548793;91;34941;-77
2022/06/17 08:15:17;;;;;;;32.58;29.18;;;;;;;17.62;75.69;97601.80;1552500;91;25731;-75
2022/06/17 08:17:44;;;;;;;30.97;27.75;;;;;;;17.79;75.93;97596.84;1557232;91;25939;-74
2022/06/17 08:20:27;;;;;;;38.50;30.25;;;;;;;17.86;75.59;97593.41;1558185;91;28268;-76
2022/06/17 08:22:54;;;;;;;32.48;28.35;;;;;;;18.08;75.67;97609.27;1549529;91;25912;-75
2022/06/17 08:25:21;;;;;;;32.67;29.30;;;;;;;18.09;75.08;97610.91;1553337;91;25846;-75
2022/06/17 08:27:52;;;;;;;38.85;30.55;;;;;;;17.98;74.81;97611.88;1563577;91;26508;-76
2022/06/17 08:30:23;;;;;;;36.93;30.65;;;;;;;17.77;74.56;97616.75;1514527;92;25967;-75
2022/06/17 08:32:53;;;;;;;33.53;29.32;;;;;;;17.73;74.45;97614.26;1520309;92;28199;-75
2022/06/17 08:35:32;;;;;;;32.25;28.60;;;;;;;17.84;74.95;97606.48;1525188;92;25959;-75
2022/06/17 08:38:10;;;;;;;32.08;28.20;;;;;;;18.37;75.40;97608.49;1487240;93;26206;-78
2022/06/17 08:40:54;;;;;;;32.58;28.98;;;;;;;18.99;74.71;97615.72;1458707;97;26080;-75
2022/06/17 08:44:15;;;;;;;31.80;26.17;;;;;;;19.24;73.57;97622.50;1455079;97;25980;-76
2022/06/17 08:47:04;;;;;;;28.73;25.65;;;;;;;19.58;73.21;97618.41;1460177;97;27579;-78
2022/06/17 08:49:51;;;;;;;28.52;25.12;;;;;;;20.18;72.42;97620.37;1465851;97;25972;-76
2022/06/17 08:52:35;;;;;;;31.17;25.15;;;;;;;20.31;71.13;97626.19;1428624;99;25876;-75
2022/06/17 08:55:25;;;;;;;28.75;23.98;;;;;;;19.78;70.35;97603.48;1423144;98;25831;-76
2022/06/17 08:58:19;;;;;;;29.87;24.67;;;;;;;19.98;71.09;97627.95;1426073;97;26729;-76
2022/06/17 09:01:03;;;;;;;29.90;25.90;;;;;;;19.98;71.09;97627.95;1500812;95;27478;-76
2022/06/17 09:04:01;;;;;;;26.65;23.65;;;;;;;20.27;69.82;97634.69;1475908;96;25977;-76
2022/06/17 09:07:03;;;;;;;25.20;22.50;;;;;;;20.64;70.26;97634.58;1505010;93;25892;-76
2022/06/17 09:10:21;;;;;;;26.17;22.75;;;;;;;20.77;69.33;97635.98;1531290;92;25891;-76
2022/06/17 09:13:34;;;;;;;24.90;22.15;;;;;;;20.94;68.70;97640.66;1498558;94;25823;-76
2022/06/17 09:16:06;;;;;;;;;;;;;;;20.98;67.77;97653.30;1514716;94;28225;-78
2022/06/17 09:18:38;;;;;;;21.95;19.65;;;;;;;20.10;67.05;97639.53;1562211;89;25850;-76
2022/06/17 09:21:12;;;;;;;23.40;19.45;;;;;;;20.10;67.05;97639.53;1591554;89;25966;-77
2022/06/17 09:23:41;;;;;;;24.55;19.02;;;;;;;20.24;67.16;97661.25;1553388;90;26040;-76
2022/06/17 09:26:21;;;;;;;21.07;17.65;;;;;;;20.43;66.53;97658.34;1554938;89;25869;-76
2022/06/17 09:28:54;;;;;;;17.70;15.30;;;;;;;20.21;66.42;97651.36;1608507;87;27458;-76
2022/06/17 09:31:38;;;;;;;16.60;14.38;;;;;;;20.17;66.67;97668.87;1588002;89;25872;-77
2022/06/17 09:34:25;;;;;;;15.08;13.58;;;;;;;20.55;66.78;97673.73;1590087;88;25832;-75
2022/06/17 09:37:00;;;;;;;13.95;12.65;;;;;;;20.68;65.94;97674.06;1552372;92;25867;-75
2022/06/17 09:39:41;;;;;;;20.30;15.65;;;;;;;20.86;65.68;97671.38;1524424;93;25534;-76
2022/06/17 09:42:22;;;;;;;17.87;15.60;;;;;;;21.37;65.33;97685.22;1522151;93;27690;-78
2022/06/17 09:45:12;;;;;;;19.87;16.67;;;;;;;21.86;64.62;97690.94;1523533;93;25842;-76
2022/06/17 09:47:53;;;;;;;18.87;16.80;;;;;;;22.12;63.74;97695.33;1495391;95;25784;-77
2022/06/17 09:50:33;;;;;;;17.60;15.90;;;;;;;22.17;63.23;97689.83;1405468;99;26378;-76
2022/06/17 09:53:14;;;;;;;18.55;16.50;;;;;;;22.55;63.40;97689.71;1429659;99;25997;-79
2022/06/17 09:56:02;;;;;;;17.73;14.28;;;;;;;22.81;62.58;97689.08;1392221;100;27525;-76
2022/06/17 09:58:54;;;;;;;16.57;14.70;;;;;;;22.95;61.24;97680.99;1399170;101;25616;-78
2022/06/17 10:01:24;;;;;;;15.78;14.18;;;;;;;22.78;59.51;97680.00;1395178;100;26057;-78
2022/06/17 10:03:51;;;;;;;15.15;13.70;;;;;;;22.74;60.38;97678.06;1393935;101;26365;-77
2022/06/17 10:06:44;;;;;;;21.37;13.98;;;;;;;23.06;60.10;97668.84;1381100;100;25664;-77
2022/06/17 10:09:37;;;;;;;13.90;12.37;;;;;;;23.35;60.15;97680.73;1367717;103;27059;-76
2022/06/17 10:12:24;;;;;;;13.98;11.38;;;;;;;23.65;59.21;97673.38;1362201;103;25872;-77
2022/06/17 10:15:23;;;;;;;11.33;9.95;;;;;;;23.84;58.38;97673.47;1343487;104;25967;-77
2022/06/17 10:21:35;;;;;;;12.68;9.85;;;;;;;24.27;56.99;97678.59;1358949;104;26140;-79
2022/06/17 10:24:19;;;;;;;9.48;6.97;;;;;;;24.37;56.92;97677.09;1345425;105;28336;-77
2022/06/17 10:26:57;;;;;;;10.35;7.08;;;;;;;24.60;56.14;97672.67;1374969;103;25905;-78
2022/06/17 10:29:47;;;;;;;8.28;7.05;;;;;;;24.53;54.98;97674.39;1440959;97;25879;-78
2022/06/17 10:32:14;;;;;;;10.45;6.65;;;;;;;24.21;54.26;97681.91;1464194;96;26310;-76
2022/06/17 10:34:48;;;;;;;8.15;7.30;;;;;;;23.96;54.28;97682.17;1471742;97;26978;-78
2022/06/17 10:37:16;;;;;;;8.63;7.83;;;;;;;23.99;54.68;97671.39;1474662;96;27600;-77
2022/06/17 10:39:46;;;;;;;8.85;7.70;;;;;;;23.78;53.69;97671.89;1451510;98;26036;-76
2022/06/17 10:42:17;;;;;;;12.50;8.35;;;;;;;23.56;54.62;97677.84;1467916;96;25862;-75
2022/06/17 10:44:50;;;;;;;9.70;8.63;;;;;;;23.34;54.33;97673.58;1416150;99;26310;-77
2022/06/17 10:47:40;;;;;;;13.90;8.38;;;;;;;22.95;53.71;97676.86;1399676;101;25958;-79
2022/06/17 10:50:22;;;;;;;12.55;9.68;;;;;;;22.70;54.36;97672.31;1379491;103;27564;-79
2022/06/17 10:53:12;;;;;;;13.60;9.40;;;;;;;22.64;54.34;97663.25;1380621;102;25975;-76
2022/06/17 10:55:46;;;;;;;11.25;9.93;;;;;;;22.69;54.66;97665.72;1381754;102;25920;-76
2022/06/17 10:58:29;;;;;;;13.35;9.18;;;;;;;22.91;54.17;97673.05;1379748;103;26286;-76
2022/06/17 11:01:03;;;;;;;13.05;10.40;;;;;;;22.82;54.01;97668.67;1343381;106;25935;-76
2022/06/17 11:03:39;;;;;;;13.22;10.43;;;;;;;22.64;53.87;97668.75;1350053;105;27689;-78
2022/06/17 11:06:22;;;;;;;12.05;10.68;;;;;;;22.48;54.10;97666.34;1344656;105;25917;-77
2022/06/17 11:08:56;;;;;;;14.45;12.58;;;;;;;22.37;54.01;97669.69;1322375;106;25875;-75
2022/06/17 11:12:03;;;;;;;13.75;11.65;;;;;;;22.16;54.34;97671.69;1328512;105;26257;-77
2022/06/17 11:14:43;;;;;;;15.00;12.98;;;;;;;21.92;54.62;97670.06;1325516;105;25663;-77
2022/06/17 11:17:43;;;;;;;13.38;11.97;;;;;;;21.79;54.69;97677.50;1331028;104;27562;-77
2022/06/17 11:20:29;;;;;;;15.40;12.00;;;;;;;21.75;54.99;97679.14;1416707;100;25884;-80
2022/06/17 11:23:18;;;;;;;14.47;11.22;;;;;;;21.82;54.71;97678.33;1419270;99;25942;-77
2022/06/17 11:25:46;;;;;;;13.35;11.03;;;;;;;21.77;55.02;97678.33;1419037;100;25974;-77
2022/06/17 11:28:26;;;;;;;14.50;10.68;;;;;;;21.82;55.13;97681.08;1419713;100;26592;-77
2022/06/17 11:31:03;;;;;;;15.98;11.35;;;;;;;22.03;55.57;97682.44;1420130;99;27553;-77
2022/06/17 11:33:34;;;;;;;12.82;11.50;;;;;;;22.25;55.03;97666.43;1384786;100;25941;-78
2022/06/17 11:36:08;;;;;;;13.28;11.83;;;;;;;22.41;54.86;97670.78;1378161;101;25839;-78
2022/06/17 11:38:35;;;;;;;15.40;11.00;;;;;;;22.65;54.50;97668.20;1389520;102;26013;-79
2022/06/17 11:41:04;;;;;;;12.30;11.00;;;;;;;22.87;54.74;97669.21;1418553;96;25833;-78
2022/06/17 11:43:43;;;;;;;12.50;11.20;;;;;;;22.91;54.67;97668.37;1520803;93;27485;-76
2022/06/17 11:46:23;;;;;;;11.90;10.30;;;;;;;23.08;54.05;97673.48;1502445;94;26119;-75
2022/06/17 11:48:57;;;;;;;12.43;9.83;;;;;;;23.16;53.85;97679.78;1468222;95;25889;-77
2022/06/17 11:51:34;;;;;;;13.98;10.48;;;;;;;23.20;53.24;97672.58;1462702;96;25543;-77
2022/06/17 11:54:11;;;;;;;14.75;11.05;;;;;;;23.24;53.33;97677.79;1439138;98;25943;-78
2022/06/17 11:56:41;;;;;;;13.08;11.57;;;;;;;23.33;53.02;97677.44;1439287;98;27595;-78
2022/06/17 11:59:25;;;;;;;13.98;11.85;;;;;;;23.29;52.11;97672.81;1437976;99;25984;-79
2022/06/17 12:02:03;;;;;;;16.62;12.75;;;;;;;23.05;53.00;97669.95;1463287;97;26776;-76
2022/06/17 12:04:49;;;;;;;13.18;11.78;;;;;;;23.04;52.92;97675.18;1466802;96;26308;-78
2022/06/17 12:07:29;;;;;;;13.10;10.88;;;;;;;22.73;51.88;97678.61;1467504;96;26152;-78